Time;durP1;ratioP1;P1;durP2;ratioP2;P2;SDS_P1;SDS_P2;PMS_P1;PMS_P2;Temp;Humidity;BMP_temperature;BMP_pressure;BME280_temperature;BME280_humidity;BME280_pressure;Samples;Min_cycle;Max_cycle;Signal;HPM_P1;HPM_P2
2023/01/14 00:01:20;;;;;;;27.00;5.27;;;8.60;99.90;;;;;;5054175;28;20216;-82
2023/01/14 00:03:48;;;;;;;34.17;6.57;;;8.60;99.90;;;;;;5052565;28;20205;-83
2023/01/14 00:06:18;;;;;;;31.57;6.10;;;8.70;99.90;;;;;;5038218;28;20741;-83
2023/01/14 00:08:45;;;;;;;26.53;5.67;;;8.70;99.90;;;;;;5055941;28;20209;-84
2023/01/14 00:11:15;;;;;;;27.43;6.50;;;8.70;99.90;;;;;;5044978;28;20290;-83
2023/01/14 00:13:43;;;;;;;24.17;6.03;;;8.70;99.90;;;;;;5054442;28;20310;-81
2023/01/14 00:16:13;;;;;;;31.63;5.73;;;8.80;99.90;;;;;;5053173;28;20231;-83
2023/01/14 00:18:41;;;;;;;27.10;6.17;;;8.80;99.90;;;;;;5047811;28;20240;-82
2023/01/14 00:21:11;;;;;;;24.00;5.70;;;8.70;99.90;;;;;;5054069;28;20714;-82
2023/01/14 00:23:40;;;;;;;21.30;5.07;;;8.70;99.90;;;;;;5050987;28;20205;-83
2023/01/14 00:26:10;;;;;;;30.13;6.00;;;8.70;99.90;;;;;;5051794;28;20936;-83
2023/01/14 00:28:37;;;;;;;27.60;5.33;;;8.60;99.90;;;;;;5027095;28;20211;-83
2023/01/14 00:31:08;;;;;;;29.17;6.70;;;8.60;99.90;;;;;;5049555;28;20794;-82
2023/01/14 00:33:36;;;;;;;22.87;4.93;;;8.60;99.90;;;;;;5049232;28;20240;-83
2023/01/14 00:36:04;;;;;;;28.60;5.97;;;8.60;99.90;;;;;;5051815;28;20246;-82
2023/01/14 00:38:32;;;;;;;30.50;5.33;;;9.50;99.90;;;;;;5054834;28;20263;-83
2023/01/14 00:41:06;;;;;;;25.63;5.43;;;8.60;99.90;;;;;;5046457;28;20744;-83
2023/01/14 00:43:40;;;;;;;35.87;6.77;;;8.60;99.90;;;;;;5059068;28;20278;-84
2023/01/14 00:46:27;;;;;;;25.03;5.20;;;8.70;99.90;;;;;;5054480;28;20233;-83
2023/01/14 00:48:59;;;;;;;23.33;6.53;;;;;;;;;;5050746;28;20224;-83
2023/01/14 00:51:27;;;;;;;27.80;5.47;;;;;;;;;;5043394;28;20260;-83
2023/01/14 00:54:01;;;;;;;26.03;6.10;;;8.60;99.90;;;;;;5042285;28;20923;-83
2023/01/14 00:56:43;;;;;;;27.47;5.93;;;8.60;99.90;;;;;;5055169;28;20247;-83
2023/01/14 00:59:19;;;;;;;31.90;5.93;;;8.60;99.90;;;;;;5041036;28;20535;-83
2023/01/14 01:01:54;;;;;;;31.13;6.33;;;9.20;99.90;;;;;;5058357;28;20223;-83
2023/01/14 01:04:21;;;;;;;25.67;5.50;;;;;;;;;;5055090;28;20210;-83
2023/01/14 01:06:52;;;;;;;28.97;6.23;;;;;;;;;;5057450;28;20221;-83
2023/01/14 01:09:21;;;;;;;23.27;5.57;;;8.40;99.90;;;;;;5068745;28;20287;-83
2023/01/14 01:11:50;;;;;;;34.37;5.93;;;8.40;99.90;;;;;;5041025;28;20213;-83
2023/01/14 01:14:17;;;;;;;25.33;4.90;;;8.40;99.90;;;;;;5053452;28;20204;-82
2023/01/14 01:16:44;;;;;;;30.97;6.50;;;8.40;99.90;;;;;;5065662;28;20266;-81
2023/01/14 01:19:11;;;;;;;31.17;6.57;;;8.40;99.90;;;;;;5053036;28;20218;-82
2023/01/14 01:21:38;;;;;;;39.40;6.77;;;8.40;99.90;;;;;;5040713;28;20267;-82
2023/01/14 01:24:05;;;;;;;27.03;6.03;;;8.30;99.90;;;;;;5053524;28;20208;-82
2023/01/14 01:26:35;;;;;;;41.23;6.40;;;8.20;99.90;;;;;;5066640;28;20260;-83
2023/01/14 01:29:04;;;;;;;28.17;5.97;;;8.10;99.90;;;;;;5038801;28;20201;-82
2023/01/14 01:31:31;;;;;;;29.33;6.30;;;8.00;99.90;;;;;;5053342;28;20206;-82
2023/01/14 01:33:58;;;;;;;25.53;5.80;;;7.90;99.90;;;;;;5036585;28;20225;-82
2023/01/14 01:36:27;;;;;;;31.43;5.83;;;7.90;99.90;;;;;;5045981;28;20255;-82
2023/01/14 01:38:55;;;;;;;28.27;6.50;;;7.80;99.90;;;;;;5049950;28;20213;-83
2023/01/14 01:41:24;;;;;;;30.10;5.97;;;7.80;99.90;;;;;;5045193;28;20219;-82
2023/01/14 01:44:04;;;;;;;26.57;5.10;;;7.70;99.90;;;;;;5070965;28;20206;-82
2023/01/14 01:46:32;;;;;;;25.00;5.43;;;7.40;99.90;;;;;;5037892;28;20232;-82
2023/01/14 01:49:03;;;;;;;28.63;6.07;;;7.70;99.90;;;;;;5034918;28;20238;-82
2023/01/14 01:51:34;;;;;;;31.40;6.50;;;7.70;99.90;;;;;;5034815;28;20269;-84
2023/01/14 01:54:02;;;;;;;32.10;6.57;;;7.60;99.90;;;;;;5034275;28;20221;-84
2023/01/14 01:56:35;;;;;;;31.00;5.73;;;7.60;99.90;;;;;;5055779;28;20284;-83
2023/01/14 01:59:10;;;;;;;29.40;6.20;;;7.50;99.90;;;;;;5036774;28;20711;-83
2023/01/14 02:01:39;;;;;;;23.50;5.50;;;7.50;99.90;;;;;;5035739;28;20294;-83
2023/01/14 02:04:07;;;;;;;28.47;5.47;;;7.40;99.90;;;;;;5055914;28;20253;-83
2023/01/14 02:06:36;;;;;;;36.03;5.13;;;7.40;99.90;;;;;;5037198;28;20257;-84
2023/01/14 02:09:05;;;;;;;26.73;5.67;;;7.30;99.90;;;;;;5041524;28;20293;-84
2023/01/14 02:12:03;;;;;;;33.73;5.70;;;7.20;99.90;;;;;;5040871;28;20201;-82
2023/01/14 02:14:48;;;;;;;25.97;5.47;;;7.20;99.90;;;;;;5039671;28;20206;-83
2023/01/14 02:17:24;;;;;;;27.00;5.20;;;7.10;99.90;;;;;;5054742;28;20186;-83
2023/01/14 02:20:09;;;;;;;29.60;5.83;;;7.10;99.90;;;;;;5040419;28;20256;-85
2023/01/14 02:23:06;;;;;;;30.80;6.20;;;6.90;99.90;;;;;;5074338;28;20269;-83
2023/01/14 02:25:58;;;;;;;31.10;5.40;;;6.90;99.90;;;;;;5052540;28;20307;-82
2023/01/14 02:28:40;;;;;;;29.23;5.13;;;6.90;99.90;;;;;;5045992;28;20216;-83
2023/01/14 02:31:14;;;;;;;28.83;5.57;;;6.80;99.90;;;;;;5048497;28;20212;-85
2023/01/14 02:33:47;;;;;;;29.23;6.47;;;6.80;99.90;;;;;;5052132;28;20209;-83
2023/01/14 02:36:28;;;;;;;31.73;6.20;;;6.80;99.90;;;;;;5041038;28;20213;-85
2023/01/14 02:39:05;;;;;;;31.70;5.53;;;6.80;99.90;;;;;;5031063;28;20227;-84
2023/01/14 02:44:28;;;;;;;25.60;5.37;;;6.80;99.90;;;;;;5042346;28;20211;-84
2023/01/14 02:46:59;;;;;;;31.33;5.77;;;6.80;99.90;;;;;;5072627;28;20213;-84
2023/01/14 02:49:30;;;;;;;26.87;6.03;;;6.80;99.90;;;;;;5049155;28;20262;-85
2023/01/14 02:51:58;;;;;;;29.90;6.03;;;5.80;99.90;;;;;;5048868;28;20215;-86
2023/01/14 02:54:28;;;;;;;33.17;5.07;;;6.80;99.90;;;;;;5050512;28;20209;-86
2023/01/14 02:57:00;;;;;;;29.53;6.40;;;6.80;99.90;;;;;;5046550;28;20233;-84
2023/01/14 02:59:47;;;;;;;27.40;5.73;;;6.70;99.90;;;;;;5052238;28;20216;-85
2023/01/14 03:02:50;;;;;;;32.47;5.90;;;6.70;99.90;;;;;;5049645;28;20271;-84
2023/01/14 03:05:58;;;;;;;34.77;5.57;;;6.70;99.90;;;;;;5064327;28;20276;-84
2023/01/14 03:08:34;;;;;;;23.93;4.43;;;6.70;99.90;;;;;;5048279;28;20427;-83
2023/01/14 03:11:15;;;;;;;29.57;5.73;;;6.70;99.90;;;;;;5050189;28;20347;-86
2023/01/14 03:13:57;;;;;;;30.97;6.67;;;6.70;99.90;;;;;;5051087;28;20458;-85
2023/01/14 03:16:32;;;;;;;25.70;5.07;;;6.70;99.90;;;;;;5043710;28;20233;-83
2023/01/14 03:19:05;;;;;;;25.97;5.47;;;6.80;99.90;;;;;;5064775;28;20268;-84
2023/01/14 03:21:40;;;;;;;31.30;5.67;;;6.90;99.90;;;;;;5051302;28;20266;-85
2023/01/14 03:24:14;;;;;;;25.17;5.20;;;7.00;99.90;;;;;;5049062;28;20300;-85
2023/01/14 03:26:49;;;;;;;25.50;5.30;;;7.00;99.90;;;;;;5053369;28;20233;-84
2023/01/14 03:29:25;;;;;;;39.63;5.40;;;7.00;99.90;;;;;;5051487;28;20205;-84
2023/01/14 03:32:13;;;;;;;22.67;4.67;;;7.10;99.90;;;;;;5041734;28;20204;-84
2023/01/14 03:34:48;;;;;;;34.30;5.70;;;7.00;99.90;;;;;;5038689;28;20204;-85
2023/01/14 03:37:33;;;;;;;18.03;4.60;;;7.00;99.90;;;;;;5070596;28;20210;-86
2023/01/14 03:40:22;;;;;;;21.37;4.80;;;7.00;99.90;;;;;;5063831;28;20213;-85
2023/01/14 03:42:55;;;;;;;31.63;5.90;;;7.00;99.90;;;;;;5043781;28;20224;-84
2023/01/14 03:45:26;;;;;;;28.50;6.03;;;7.10;99.90;;;;;;5050827;28;20281;-87
2023/01/14 03:47:54;;;;;;;32.20;6.97;;;7.10;99.90;;;;;;5068520;28;20190;-82
2023/01/14 03:50:31;;;;;;;19.87;4.63;;;7.10;99.90;;;;;;5068955;28;20197;-83
2023/01/14 03:53:20;;;;;;;22.57;5.67;;;7.20;99.90;;;;;;5071833;28;20199;-85
2023/01/14 03:55:59;;;;;;;26.93;5.77;;;7.20;99.90;;;;;;5051464;28;20251;-83
2023/01/14 03:58:36;;;;;;;19.70;4.40;;;7.30;99.90;;;;;;5034458;28;20271;-83
2023/01/14 04:01:15;;;;;;;23.30;4.87;;;7.30;99.90;;;;;;5053859;28;20206;-84
2023/01/14 04:03:46;;;;;;;22.67;5.67;;;7.40;99.90;;;;;;5043168;28;20321;-83
2023/01/14 04:06:14;;;;;;;30.47;5.53;;;7.40;99.90;;;;;;5056272;28;20291;-85
2023/01/14 04:08:45;;;;;;;27.10;5.27;;;7.40;99.90;;;;;;5056028;28;20203;-84
2023/01/14 04:11:15;;;;;;;25.30;5.13;;;7.40;99.90;;;;;;5055700;28;20202;-83
2023/01/14 04:16:31;;;;;;;29.23;5.00;;;7.40;99.90;;;;;;5051009;28;20224;-84
2023/01/14 04:19:04;;;;;;;28.37;5.70;;;7.40;99.90;;;;;;5029768;28;20218;-83
2023/01/14 04:21:43;;;;;;;30.77;5.10;;;7.40;99.90;;;;;;5036135;28;20213;-84
2023/01/14 04:24:21;;;;;;;27.30;5.33;;;7.30;99.90;;;;;;5048922;28;20207;-83
2023/01/14 04:29:52;;;;;;;31.63;5.47;;;7.30;99.90;;;;;;5037170;28;20303;-83
2023/01/14 04:32:26;;;;;;;25.70;5.67;;;7.40;99.90;;;;;;5053418;28;20195;-83
2023/01/14 04:34:53;;;;;;;31.70;6.50;;;7.40;99.90;;;;;;5030875;28;20210;-83
2023/01/14 04:37:21;;;;;;;29.23;5.57;;;7.30;99.90;;;;;;5053097;28;20205;-83
2023/01/14 04:40:02;;;;;;;32.40;5.47;;;7.40;99.90;;;;;;5049001;28;20181;-83
2023/01/14 04:45:23;;;;;;;15.90;4.50;;;7.30;99.90;;;;;;5042658;28;20278;-83
2023/01/14 04:47:55;;;;;;;29.27;6.00;;;7.30;99.90;;;;;;5048876;28;20216;-83
2023/01/14 04:50:34;;;;;;;30.97;5.20;;;7.30;99.90;;;;;;5045060;28;20207;-83
2023/01/14 04:53:12;;;;;;;24.03;5.17;;;7.30;99.90;;;;;;5031133;28;20227;-83
2023/01/14 04:55:43;;;;;;;22.47;5.20;;;7.30;99.90;;;;;;5052843;28;20232;-82
2023/01/14 04:58:17;;;;;;;28.13;5.60;;;7.30;99.90;;;;;;5030761;28;20272;-83
2023/01/14 05:00:50;;;;;;;26.10;5.43;;;7.30;99.90;;;;;;5056494;28;20232;-82
2023/01/14 05:03:18;;;;;;;30.90;6.37;;;7.30;99.90;;;;;;5027970;28;20228;-83
2023/01/14 05:05:55;;;;;;;30.67;5.93;;;7.00;99.90;;;;;;5030807;28;20224;-83
2023/01/14 05:08:33;;;;;;;26.77;5.73;;;7.20;99.90;;;;;;5056074;28;20214;-83
2023/01/14 05:11:02;;;;;;;33.00;5.70;;;7.20;99.90;;;;;;5046353;28;20208;-82
2023/01/14 05:13:36;;;;;;;26.50;4.70;;;7.20;99.90;;;;;;5032572;28;20219;-83
2023/01/14 05:16:07;;;;;;;24.90;5.20;;;7.20;99.90;;;;;;5030848;28;20294;-82
2023/01/14 05:18:36;;;;;;;24.27;5.23;;;7.20;99.90;;;;;;5053162;28;20903;-83
2023/01/14 05:21:07;;;;;;;22.97;5.47;;;7.20;99.90;;;;;;5050991;28;20215;-83
2023/01/14 05:23:34;;;;;;;19.53;4.40;;;7.20;99.90;;;;;;5053164;28;20220;-83
2023/01/14 05:26:09;;;;;;;26.17;5.53;;;7.20;99.90;;;;;;5051286;28;20286;-82
2023/01/14 05:28:39;;;;;;;22.67;5.00;;;7.20;99.90;;;;;;5046729;28;20590;-83
2023/01/14 05:31:07;;;;;;;21.43;5.47;;;7.10;99.90;;;;;;5048552;28;20267;-85
2023/01/14 05:33:35;;;;;;;29.67;5.70;;;7.10;99.90;;;;;;5036482;28;20932;-83
2023/01/14 05:36:05;;;;;;;21.60;4.63;;;7.10;99.90;;;;;;5032015;28;20320;-82
2023/01/14 05:38:32;;;;;;;18.87;4.93;;;7.10;99.90;;;;;;5055849;28;20227;-82
2023/01/14 05:41:14;;;;;;;25.63;5.70;;;7.10;99.90;;;;;;5039866;28;20236;-82
2023/01/14 05:46:26;;;;;;;30.07;5.37;;;7.10;99.90;;;;;;5052235;28;20228;-83
2023/01/14 05:49:01;;;;;;;26.17;5.07;;;7.10;99.90;;;;;;5051459;28;20205;-82
2023/01/14 05:51:28;;;;;;;14.17;4.23;;;7.20;99.90;;;;;;5054412;28;20420;-82
2023/01/14 05:54:05;;;;;;;21.97;5.03;;;7.10;99.90;;;;;;5065903;28;20314;-83
2023/01/14 05:56:44;;;;;;;20.20;5.13;;;7.20;99.90;;;;;;5074902;28;20370;-84
2023/01/14 05:59:19;;;;;;;21.50;4.63;;;7.20;99.90;;;;;;5061957;28;20212;-81
2023/01/14 06:07:24;;;;;;;28.30;5.37;;;7.20;99.90;;;;;;5069530;28;20203;-84
2023/01/14 06:09:55;;;;;;;20.93;4.67;;;7.20;99.90;;;;;;5054303;28;20291;-83
2023/01/14 06:12:57;;;;;;;20.23;4.93;;;7.20;99.90;;;;;;5046133;28;20214;-82
2023/01/14 06:15:21;;;;;;;21.03;4.10;;;7.20;99.90;;;;;;5057852;28;20226;-83
2023/01/14 06:17:58;;;;;;;29.37;5.60;;;7.20;99.90;;;;;;5060033;28;20580;-83
2023/01/14 06:20:25;;;;;;;19.43;4.07;;;7.20;99.90;;;;;;5055257;28;20317;-84
2023/01/14 06:23:00;;;;;;;23.60;5.10;;;7.20;99.90;;;;;;5034332;28;20210;-83
2023/01/14 06:25:29;;;;;;;20.43;4.33;;;7.20;99.90;;;;;;5060306;28;20218;-83
2023/01/14 06:27:57;;;;;;;26.93;5.63;;;7.30;99.90;;;;;;5057039;28;20216;-82
2023/01/14 06:30:24;;;;;;;18.87;4.47;;;7.30;99.90;;;;;;5043622;28;20265;-83
2023/01/14 06:32:51;;;;;;;15.80;4.17;;;7.30;99.90;;;;;;5063286;28;20236;-83
2023/01/14 06:35:18;;;;;;;17.40;4.80;;;7.30;99.90;;;;;;5062121;28;20256;-83
2023/01/14 06:37:45;;;;;;;22.00;5.07;;;7.40;99.90;;;;;;5041823;28;20295;-84
2023/01/14 06:40:13;;;;;;;18.03;4.87;;;7.50;99.90;;;;;;5058381;28;20660;-84
2023/01/14 06:42:40;;;;;;;18.73;4.50;;;7.60;99.90;;;;;;5051809;28;20248;-84
2023/01/14 06:45:11;;;;;;;11.17;3.60;;;7.60;99.90;;;;;;5051132;28;20233;-84
2023/01/14 06:47:38;;;;;;;24.00;5.10;;;7.70;99.90;;;;;;5051960;28;20220;-86
2023/01/14 06:50:06;;;;;;;15.00;4.73;;;7.80;99.90;;;;;;5036101;28;20197;-83
2023/01/14 06:52:33;;;;;;;23.30;4.77;;;7.80;99.90;;;;;;5033363;28;20683;-83
2023/01/14 06:55:00;;;;;;;26.90;5.70;;;7.90;99.90;;;;;;5037366;28;20209;-82
2023/01/14 06:57:27;;;;;;;21.10;4.97;;;7.90;99.90;;;;;;5049815;28;20211;-82
2023/01/14 06:59:54;;;;;;;20.97;4.60;;;8.00;99.90;;;;;;5053328;28;20196;-82
2023/01/14 07:02:22;;;;;;;13.17;3.50;;;8.00;99.90;;;;;;5053981;28;20822;-82
2023/01/14 07:04:49;;;;;;;35.03;6.60;;;8.10;99.90;;;;;;5057726;28;20209;-82
2023/01/14 07:07:17;;;;;;;18.53;5.13;;;8.10;99.90;;;;;;5034772;28;20604;-82
2023/01/14 07:09:44;;;;;;;19.37;3.93;;;8.10;99.90;;;;;;5056060;28;20211;-82
2023/01/14 07:12:11;;;;;;;31.00;8.20;;;8.10;99.90;;;;;;5034325;28;20263;-81
2023/01/14 07:14:38;;;;;;;24.30;4.73;;;8.10;99.90;;;;;;5023266;28;20201;-81
2023/01/14 07:17:05;;;;;;;18.23;4.53;;;8.00;99.90;;;;;;5054212;28;20228;-81
2023/01/14 07:19:33;;;;;;;18.83;4.80;;;8.00;99.90;;;;;;5054291;28;20241;-82
2023/01/14 07:22:00;;;;;;;16.43;3.70;;;8.00;99.90;;;;;;5053637;28;20231;-82
2023/01/14 07:24:27;;;;;;;15.93;3.93;;;7.90;99.90;;;;;;5062867;28;20223;-82
2023/01/14 07:26:54;;;;;;;17.43;4.93;;;7.90;99.90;;;;;;5053861;28;20569;-82
2023/01/14 07:29:21;;;;;;;20.83;4.17;;;7.80;99.90;;;;;;5059849;28;20208;-81
2023/01/14 07:31:48;;;;;;;17.03;4.20;;;7.80;99.90;;;;;;5033376;28;20208;-81
2023/01/14 07:34:15;;;;;;;21.63;5.23;;;7.80;99.90;;;;;;5036873;28;20935;-80
2023/01/14 07:36:44;;;;;;;22.37;5.40;;;7.70;99.90;;;;;;5040222;28;20243;-80
2023/01/14 07:39:11;;;;;;;21.87;4.73;;;7.70;99.90;;;;;;5053313;28;20205;-80
2023/01/14 07:41:39;;;;;;;18.90;4.97;;;7.70;99.90;;;;;;5051266;28;20197;-80
2023/01/14 07:44:06;;;;;;;17.27;3.63;;;7.60;99.90;;;;;;5050397;28;20220;-80
2023/01/14 07:46:33;;;;;;;20.57;4.63;;;7.60;99.90;;;;;;5052256;28;20235;-83
2023/01/14 07:49:00;;;;;;;23.10;5.80;;;7.60;99.90;;;;;;5056484;28;20203;-80
2023/01/14 07:51:27;;;;;;;23.23;5.67;;;7.50;99.90;;;;;;5046941;28;20936;-83
2023/01/14 07:53:56;;;;;;;23.27;5.60;;;7.50;99.90;;;;;;5062527;28;20280;-81
2023/01/14 07:56:23;;;;;;;15.93;4.53;;;7.50;99.90;;;;;;5057715;28;20268;-81
2023/01/14 07:58:49;;;;;;;26.07;4.77;;;7.50;99.90;;;;;;5056184;28;20211;-84
2023/01/14 08:01:17;;;;;;;20.63;5.27;;;7.40;99.90;;;;;;5056422;28;20261;-82
2023/01/14 08:03:44;;;;;;;20.80;4.57;;;7.40;99.90;;;;;;5056954;28;20304;-82
2023/01/14 08:06:11;;;;;;;29.27;5.70;;;7.40;99.90;;;;;;5023136;28;20227;-80
2023/01/14 08:08:38;;;;;;;20.50;4.83;;;7.40;99.90;;;;;;5041302;28;20216;-82
2023/01/14 08:11:06;;;;;;;21.47;5.47;;;7.30;99.90;;;;;;5058486;28;20209;-86
2023/01/14 08:13:33;;;;;;;21.27;4.60;;;7.30;99.90;;;;;;5074004;28;20215;-80
2023/01/14 08:16:02;;;;;;;8.73;2.57;;;7.30;99.90;;;;;;5056007;28;20242;-81
2023/01/14 08:18:35;;;;;;;21.97;4.60;;;7.30;99.90;;;;;;5065519;28;20282;-81
2023/01/14 08:21:04;;;;;;;23.77;6.10;;;7.20;99.90;;;;;;5058184;28;20215;-83
2023/01/14 08:23:33;;;;;;;20.17;3.80;;;7.20;99.90;;;;;;5057071;28;20781;-84
2023/01/14 08:26:01;;;;;;;22.43;4.60;;;7.30;99.90;;;;;;5043376;28;20238;-84
2023/01/14 08:28:32;;;;;;;23.90;5.10;;;7.20;99.90;;;;;;5056145;28;20209;-85
2023/01/14 08:31:02;;;;;;;21.40;5.17;;;7.20;99.90;;;;;;5048191;28;20219;-84
2023/01/14 08:33:30;;;;;;;14.73;3.87;;;7.20;99.90;;;;;;5039903;28;20241;-83
2023/01/14 08:36:00;;;;;;;19.83;4.93;;;7.20;99.90;;;;;;5056390;28;20731;-84
2023/01/14 08:38:27;;;;;;;15.83;4.57;;;7.20;99.90;;;;;;5058562;28;20218;-85
2023/01/14 08:40:54;;;;;;;21.77;4.90;;;7.20;99.90;;;;;;5047166;28;20264;-83
2023/01/14 08:43:21;;;;;;;13.43;3.30;;;7.30;99.90;;;;;;5059849;28;20234;-83
2023/01/14 08:45:51;;;;;;;15.63;4.47;;;7.30;99.90;;;;;;5051223;28;20630;-88
2023/01/14 08:48:18;;;;;;;13.57;4.43;;;7.30;99.90;;;;;;5050704;28;20793;-84
2023/01/14 08:50:45;;;;;;;18.13;4.10;;;7.40;99.90;;;;;;5053825;28;20234;-82
2023/01/14 08:53:12;;;;;;;20.27;5.37;;;7.40;99.90;;;;;;5048332;28;20284;-83
2023/01/14 08:55:39;;;;;;;12.30;3.93;;;7.40;99.90;;;;;;5052310;28;20237;-85
2023/01/14 08:58:06;;;;;;;18.07;4.30;;;7.50;99.90;;;;;;5052656;28;20209;-82
2023/01/14 09:00:33;;;;;;;22.67;5.10;;;7.50;99.90;;;;;;5061291;28;20214;-82
2023/01/14 09:03:02;;;;;;;21.27;5.37;;;7.60;99.90;;;;;;5058682;28;20208;-82
2023/01/14 09:05:29;;;;;;;19.80;4.27;;;7.70;99.90;;;;;;5045249;28;20301;-82
2023/01/14 09:19:11;;;;;;;14.03;3.93;;;7.90;99.90;;;;;;5047337;28;20720;-81
2023/01/14 09:21:38;;;;;;;13.77;3.93;;;8.00;99.90;;;;;;5053232;28;20207;-82
2023/01/14 09:24:06;;;;;;;19.77;4.70;;;8.00;99.90;;;;;;5052259;28;20215;-82
2023/01/14 09:26:33;;;;;;;19.17;3.83;;;8.10;99.90;;;;;;5034767;28;20232;-81
2023/01/14 09:29:00;;;;;;;15.07;4.27;;;8.10;99.90;;;;;;5056824;28;20207;-81
2023/01/14 09:31:27;;;;;;;19.50;4.63;;;8.20;99.90;;;;;;5056955;28;20205;-83
2023/01/14 09:33:54;;;;;;;19.23;4.70;;;8.20;99.90;;;;;;5048609;28;20204;-82
2023/01/14 09:36:22;;;;;;;19.33;5.13;;;8.20;99.90;;;;;;5032730;28;20295;-82
2023/01/14 09:38:52;;;;;;;20.23;4.43;;;8.40;99.90;;;;;;5050922;28;20203;-86
2023/01/14 09:41:34;;;;;;;11.23;3.50;;;8.30;99.90;;;;;;5038905;28;20206;-87
2023/01/14 09:44:07;;;;;;;14.30;3.70;;;8.40;99.90;;;;;;5044773;28;20469;-87
2023/01/14 09:46:37;;;;;;;17.13;4.80;;;8.40;99.90;;;;;;5044883;28;20228;-87
2023/01/14 09:49:06;;;;;;;12.93;3.53;;;8.50;99.90;;;;;;5052811;28;20209;-87
2023/01/14 09:52:02;;;;;;;10.03;3.83;;;8.50;99.90;;;;;;5029098;28;20830;-87
2023/01/14 09:54:37;;;;;;;15.27;3.93;;;8.60;99.90;;;;;;5040296;28;20209;-82
2023/01/14 09:57:11;;;;;;;17.53;4.83;;;8.60;99.90;;;;;;5039491;28;20223;-82
2023/01/14 09:59:49;;;;;;;12.43;3.70;;;8.60;99.90;;;;;;5044359;28;20213;-82
2023/01/14 10:02:20;;;;;;;12.37;4.03;;;8.60;99.90;;;;;;5048411;28;20674;-82
2023/01/14 10:04:59;;;;;;;10.67;3.77;;;8.60;99.90;;;;;;5048431;28;20212;-82
2023/01/14 10:07:29;;;;;;;9.90;3.60;;;8.70;99.90;;;;;;5050850;28;20267;-82
2023/01/14 10:09:58;;;;;;;11.50;3.63;;;8.70;99.90;;;;;;5054014;28;20653;-83
2023/01/14 10:12:30;;;;;;;14.93;3.60;;;8.70;99.90;;;;;;5030029;28;20270;-82
2023/01/14 10:15:04;;;;;;;13.73;3.50;;;8.70;99.90;;;;;;5051242;28;20259;-83
2023/01/14 10:17:37;;;;;;;11.47;3.40;;;8.70;99.90;;;;;;5053135;28;20211;-84
2023/01/14 10:20:11;;;;;;;9.43;3.20;;;8.60;99.90;;;;;;5048724;28;20283;-83
2023/01/14 10:22:42;;;;;;;12.53;3.87;;;8.60;99.90;;;;;;5052146;28;20296;-83
2023/01/14 10:25:16;;;;;;;18.43;3.60;;;8.60;99.90;;;;;;5029701;28;20233;-81
2023/01/14 10:27:47;;;;;;;14.97;3.97;;;8.50;99.90;;;;;;5053286;28;20317;-81
2023/01/14 10:30:20;;;;;;;11.13;3.63;;;8.50;99.90;;;;;;5036912;28;20202;-82
2023/01/14 10:32:49;;;;;;;11.10;3.73;;;8.40;99.90;;;;;;5053835;28;20235;-82
2023/01/14 10:35:20;;;;;;;12.90;4.30;;;8.40;99.90;;;;;;5047076;28;20234;-83
2023/01/14 10:37:49;;;;;;;11.03;4.03;;;8.30;99.90;;;;;;5048095;28;20209;-82
2023/01/14 10:40:22;;;;;;;11.97;3.57;;;8.30;99.90;;;;;;5046322;28;20204;-82
2023/01/14 10:42:49;;;;;;;15.37;4.20;;;8.30;99.90;;;;;;5028025;28;20334;-83
2023/01/14 10:45:18;;;;;;;15.07;3.60;;;8.20;99.90;;;;;;5036310;28;20619;-84
2023/01/14 10:47:45;;;;;;;10.30;3.33;;;8.20;99.90;;;;;;5065148;28;20535;-84
2023/01/14 10:50:20;;;;;;;14.07;3.67;;;8.20;99.90;;;;;;5056651;28;20750;-84
2023/01/14 10:52:49;;;;;;;;;;;8.20;99.90;;;;;;5049323;28;20077;-84
2023/01/14 10:55:17;;;;;;;;;;;8.20;99.90;;;;;;5053920;28;19925;-84
2023/01/14 10:57:49;;;;;;;11.60;3.70;;;8.20;99.90;;;;;;5054232;28;20245;-84
2023/01/14 11:00:32;;;;;;;13.10;3.20;;;8.20;99.90;;;;;;5041399;28;20593;-84
2023/01/14 11:03:00;;;;;;;11.07;3.37;;;8.20;99.90;;;;;;5038907;28;20216;-84
2023/01/14 11:05:29;;;;;;;10.83;3.40;;;8.20;99.90;;;;;;5037261;28;20261;-84
2023/01/14 11:08:02;;;;;;;13.37;3.87;;;8.20;99.90;;;;;;5033307;28;20242;-84
2023/01/14 11:10:31;;;;;;;7.33;3.07;;;8.20;99.90;;;;;;5039112;28;20216;-84
2023/01/14 11:13:16;;;;;;;12.25;3.15;;;8.20;99.90;;;;;;5027428;28;20211;-84
2023/01/14 11:15:45;;;;;;;11.50;3.33;;;8.30;99.90;;;;;;5033776;28;20233;-84
2023/01/14 11:18:33;;;;;;;10.10;3.30;;;8.30;99.90;;;;;;5034672;28;20288;-84
2023/01/14 11:21:07;;;;;;;;;;;8.30;99.90;;;;;;5042189;28;20224;-83
2023/01/14 11:23:36;;;;;;;;;;;8.30;99.90;;;;;;5034879;28;20287;-84
2023/01/14 11:26:10;;;;;;;;;;;8.30;99.90;;;;;;5036864;28;19932;-83
2023/01/14 11:28:49;;;;;;;;;;;8.40;99.90;;;;;;5051889;28;19925;-84
2023/01/14 11:31:17;;;;;;;;;;;8.40;99.90;;;;;;5043595;28;20291;-85
2023/01/14 11:33:49;;;;;;;;;;;8.40;99.90;;;;;;5061210;28;19924;-87
2023/01/14 11:36:20;;;;;;;;;;;8.40;99.90;;;;;;5037226;28;19929;-86
2023/01/14 11:38:49;;;;;;;;;;;8.50;99.90;;;;;;5034959;28;19924;-86
2023/01/14 11:41:45;;;;;;;;;;;8.50;99.90;;;;;;5059371;28;20400;-86
2023/01/14 11:44:23;;;;;;;;;;;8.50;99.90;;;;;;4983020;28;19971;-87
2023/01/14 11:47:08;;;;;;;;;;;8.50;99.90;;;;;;5039140;28;19932;-87
2023/01/14 11:49:35;;;;;;;;;;;8.60;99.90;;;;;;5024238;28;19920;-87
2023/01/14 11:52:02;;;;;;;;;;;8.60;99.90;;;;;;5033219;28;19924;-87
2023/01/14 11:54:33;;;;;;;;;;;8.60;99.90;;;;;;5033480;28;19934;-87
2023/01/14 11:57:00;;;;;;;;;;;8.60;99.90;;;;;;5033959;28;19931;-87
2023/01/14 11:59:28;;;;;;;;;;;8.90;99.90;;;;;;5032031;28;19931;-87
2023/01/14 12:01:56;;;;;;;;;;;8.70;99.90;;;;;;5051031;28;19920;-87
2023/01/14 12:04:25;;;;;;;;;;;8.70;99.90;;;;;;5037597;28;19948;-87
2023/01/14 12:06:55;;;;;;;;;;;8.70;99.90;;;;;;5053858;28;20154;-87
2023/01/14 12:09:23;;;;;;;;;;;8.70;99.90;;;;;;5046007;28;20432;-87
2023/01/14 12:11:54;;;;;;;;;;;8.80;99.90;;;;;;5036603;28;20329;-86
2023/01/14 12:17:09;;;;;;;;;;;8.80;99.90;;;;;;5031172;28;19924;-87
2023/01/14 12:19:39;;;;;;;;;;;8.90;99.90;;;;;;5030814;28;20002;-87
2023/01/14 12:22:15;;;;;;;;;;;8.80;99.90;;;;;;5034911;28;20007;-86
2023/01/14 12:24:48;;;;;;;;;;;8.80;99.90;;;;;;5058107;28;19928;-86
2023/01/14 12:27:41;;;;;;;;;;;8.90;99.90;;;;;;5053646;28;19920;-87
2023/01/14 12:30:35;;;;;;;;;;;8.90;99.90;;;;;;5063617;28;19925;-86
2023/01/14 12:33:04;;;;;;;;;;;9.00;99.90;;;;;;5038931;28;19909;-88
2023/01/14 12:35:33;;;;;;;;;;;9.00;99.90;;;;;;5059824;28;19909;-88
2023/01/14 12:38:04;;;;;;;;;;;9.00;99.90;;;;;;5059076;28;19988;-89
2023/01/14 12:46:12;;;;;;;;;;;9.20;99.90;;;;;;5061917;28;19972;-89
2023/01/14 12:48:39;;;;;;;;;;;9.20;99.90;;;;;;5069995;28;19943;-90
2023/01/14 12:51:09;;;;;;;;;;;9.20;99.90;;;;;;5049625;28;20301;-89
2023/01/14 12:53:41;;;;;;;;;;;9.20;99.90;;;;;;5068947;28;19909;-88
2023/01/14 12:56:09;;;;;;;;;;;9.30;99.90;;;;;;5066579;28;20157;-87
2023/01/14 12:58:40;;;;;;;;;;;9.30;99.90;;;;;;5051472;28;19920;-87
2023/01/14 13:01:09;;;;;;;;;;;9.30;99.90;;;;;;5041542;28;19950;-87
2023/01/14 13:03:39;;;;;;;;;;;9.30;99.90;;;;;;5030922;28;19921;-87
2023/01/14 13:06:11;;;;;;;;;;;9.30;99.90;;;;;;5031046;28;19920;-87
2023/01/14 13:08:38;;;;;;;;;;;9.30;99.90;;;;;;5054785;28;19955;-87
2023/01/14 13:11:07;;;;;;;;;;;9.30;99.90;;;;;;5033258;28;19924;-87
2023/01/14 13:13:34;;;;;;;;;;;9.30;99.90;;;;;;5027777;28;19947;-86
2023/01/14 13:16:04;;;;;;;;;;;9.40;99.90;;;;;;5027135;28;20657;-84
2023/01/14 13:18:44;;;;;;;;;;;9.30;99.90;;;;;;5047801;28;20622;-86
2023/01/14 13:21:33;;;;;;;;;;;9.30;99.90;;;;;;5036889;28;19921;-85
2023/01/14 13:24:03;;;;;;;;;;;9.30;99.90;;;;;;5048260;28;19931;-86
2023/01/14 13:26:48;;;;;;;;;;;9.30;99.90;;;;;;5029512;28;19927;-87
2023/01/14 13:29:21;;;;;;;;;;;9.30;99.90;;;;;;5029334;28;20307;-84
2023/01/14 13:31:49;;;;;;;;;;;9.30;99.90;;;;;;5036851;28;20342;-87
2023/01/14 13:34:36;;;;;;;;;;;9.30;99.90;;;;;;5029685;28;20394;-86
2023/01/14 13:37:19;;;;;;;;;;;9.40;99.90;;;;;;5036794;28;20015;-87
2023/01/14 13:39:47;;;;;;;;;;;9.40;99.90;;;;;;5043845;28;19925;-87
2023/01/14 13:48:21;;;;;;;;;;;9.40;99.90;;;;;;5020675;28;19932;-82
2023/01/14 13:50:49;;;;;;;;;;;9.50;99.90;;;;;;5028492;28;19980;-82
2023/01/14 13:53:25;;;;;;;;;;;9.50;99.90;;;;;;5020851;28;19937;-81
2023/01/14 13:55:54;;;;;;;;;;;9.50;99.90;;;;;;5005903;28;20015;-81
2023/01/14 13:58:23;;;;;;;;;;;9.50;99.90;;;;;;5004128;28;19944;-81
2023/01/14 14:01:05;;;;;;;;;;;9.50;99.90;;;;;;5001855;28;19925;-81
2023/01/14 14:03:37;;;;;;;;;;;9.50;99.90;;;;;;4986641;28;19964;-81
2023/01/14 14:06:23;;;;;;;;;;;9.50;99.90;;;;;;5005857;28;19936;-81
2023/01/14 14:08:51;;;;;;;;;;;9.50;99.90;;;;;;5010361;28;19926;-83
2023/01/14 14:11:18;;;;;;;;;;;9.60;99.90;;;;;;5017955;28;19965;-81
2023/01/14 14:14:05;;;;;;;;;;;9.60;99.90;;;;;;5005156;28;19921;-82
2023/01/14 14:16:33;;;;;;;;;;;9.60;99.90;;;;;;4996637;28;19924;-81
2023/01/14 14:19:03;;;;;;;;;;;9.60;99.90;;;;;;5019254;28;20866;-82